createdAt,value
2023-02-17T00:00:55.616Z,102124.78
2023-02-17T00:03:23.759Z,102119.66
2023-02-17T00:05:53.147Z,102118.97
2023-02-17T00:08:21.157Z,102118.63
2023-02-17T00:10:59.040Z,102122.97
2023-02-17T00:13:27.278Z,102134.56
2023-02-17T00:15:55.400Z,102129.09
2023-02-17T00:18:23.952Z,102124.19
2023-02-17T00:20:53.245Z,102124.22
2023-02-17T00:23:21.127Z,102126.00
2023-02-17T00:25:49.059Z,102121.84
2023-02-17T00:28:17.016Z,102120.47
2023-02-17T00:30:44.948Z,102125.25
2023-02-17T00:33:12.840Z,102115.25
2023-02-17T00:35:42.666Z,102118.91
2023-02-17T00:38:11.969Z,102123.91
2023-02-17T00:40:39.992Z,102122.66
2023-02-17T00:43:07.903Z,102126.34
2023-02-17T00:45:35.773Z,102133.94
2023-02-17T00:48:03.713Z,102120.47
2023-02-17T00:50:31.639Z,102124.69
2023-02-17T00:52:59.563Z,102114.44
2023-02-17T00:55:29.077Z,102112.75
2023-02-17T00:57:56.983Z,102116.56
2023-02-17T01:00:25.069Z,102104.09
2023-02-17T01:02:52.998Z,102118.69
2023-02-17T01:05:21.087Z,102112.94
2023-02-17T01:07:49.168Z,102115.56
2023-02-17T01:10:17.225Z,102110.69
2023-02-17T01:12:46.508Z,102109.81
2023-02-17T01:15:14.591Z,102115.03
2023-02-17T01:17:42.655Z,102111.72
2023-02-17T01:20:11.040Z,102119.91
2023-02-17T01:22:39.926Z,102104.72
2023-02-17T01:25:08.440Z,102106.56
2023-02-17T01:27:36.579Z,102095.59
2023-02-17T01:30:06.852Z,102095.25
2023-02-17T01:32:34.789Z,102098.28
2023-02-17T01:35:02.712Z,102106.22
2023-02-17T01:37:30.591Z,102094.50
2023-02-17T01:39:58.490Z,102106.94
2023-02-17T01:42:26.698Z,102102.91
2023-02-17T01:45:31.627Z,102105.94
2023-02-17T01:48:01.780Z,102104.38
2023-02-17T01:50:33.218Z,102093.00
2023-02-17T01:53:01.479Z,102082.97
2023-02-17T01:55:30.299Z,102098.69
2023-02-17T01:57:59.519Z,102102.00
2023-02-17T02:00:30.161Z,102098.38
2023-02-17T02:02:58.528Z,102087.22
2023-02-17T02:05:26.483Z,102095.22
2023-02-17T02:07:55.159Z,102088.88
2023-02-17T02:10:23.096Z,102074.69
2023-02-17T02:12:51.001Z,102075.16
2023-02-17T02:15:21.430Z,102048.84
2023-02-17T02:18:03.224Z,102041.81
2023-02-17T02:21:04.845Z,102046.59
2023-02-17T02:24:04.789Z,102047.72
2023-02-17T02:26:51.186Z,102051.00
2023-02-17T02:29:46.324Z,102049.59
2023-02-17T02:32:29.085Z,102038.19
2023-02-17T02:35:02.282Z,102037.84
2023-02-17T02:37:35.133Z,102026.22
2023-02-17T02:40:06.131Z,102041.31
2023-02-17T02:42:34.275Z,102040.28
2023-02-17T02:45:02.239Z,102040.59
2023-02-17T02:47:43.698Z,102034.69
2023-02-17T02:50:14.021Z,102023.56
2023-02-17T02:52:50.113Z,102019.63
2023-02-17T02:55:22.739Z,102006.03
2023-02-17T02:57:54.844Z,102002.25
2023-02-17T03:00:26.944Z,101998.69
2023-02-17T03:03:00.051Z,101992.16
2023-02-17T03:05:33.216Z,102018.88
2023-02-17T03:08:04.333Z,102002.84
2023-02-17T03:10:32.383Z,102007.88
2023-02-17T03:13:02.823Z,102015.66
2023-02-17T03:15:33.284Z,102017.22
2023-02-17T03:18:03.685Z,101998.88
2023-02-17T03:20:34.252Z,101999.47
2023-02-17T03:23:02.151Z,101987.09
2023-02-17T03:25:30.158Z,101989.69
2023-02-17T03:27:58.259Z,101987.09
2023-02-17T03:30:26.190Z,101984.72
2023-02-17T03:32:54.137Z,101987.13
2023-02-17T03:35:23.485Z,101988.97
2023-02-17T03:37:51.363Z,101979.19
2023-02-17T03:40:19.511Z,101982.19
2023-02-17T03:42:47.431Z,101981.34
2023-02-17T03:45:15.400Z,101972.31
2023-02-17T03:47:43.315Z,101970.31
2023-02-17T03:50:11.844Z,101969.47
2023-02-17T03:52:41.149Z,101978.94
2023-02-17T03:55:09.332Z,101953.31
2023-02-17T03:57:37.241Z,101957.00
2023-02-17T04:00:05.662Z,101962.81
2023-02-17T04:02:33.601Z,101954.97
2023-02-17T04:05:01.500Z,101941.38
2023-02-17T04:07:29.579Z,101944.06
2023-02-17T04:09:58.846Z,101944.19
2023-02-17T04:12:26.852Z,101944.00
2023-02-17T04:14:54.850Z,101939.16
2023-02-17T04:17:22.743Z,101938.69
2023-02-17T04:19:50.668Z,101938.09
2023-02-17T04:22:18.585Z,101937.72
2023-02-17T04:24:46.527Z,101940.63
2023-02-17T04:27:15.879Z,101927.78
2023-02-17T04:29:44.008Z,101929.09
2023-02-17T04:32:11.937Z,101921.00
2023-02-17T04:34:39.923Z,101933.94
2023-02-17T04:37:07.963Z,101937.78
2023-02-17T04:39:35.882Z,101939.75
2023-02-17T04:42:03.824Z,101921.78
2023-02-17T04:44:33.220Z,101922.75
2023-02-17T04:47:01.132Z,101917.91
2023-02-17T04:49:29.037Z,101908.34
2023-02-17T04:51:56.947Z,101896.19
2023-02-17T04:54:24.857Z,101897.28
2023-02-17T04:56:52.848Z,101899.38
2023-02-17T04:59:20.757Z,101895.03
2023-02-17T05:01:50.153Z,101890.38
2023-02-17T05:04:18.090Z,101894.53
2023-02-17T05:06:46.024Z,101902.63
2023-02-17T05:09:13.933Z,101899.47
2023-02-17T05:11:41.819Z,101884.41
2023-02-17T05:14:09.732Z,101876.88
2023-02-17T05:16:37.843Z,101871.34
2023-02-17T05:19:07.484Z,101864.41
2023-02-17T05:21:35.500Z,101867.00
2023-02-17T05:24:03.581Z,101854.97
2023-02-17T05:26:31.575Z,101848.88
2023-02-17T05:28:59.500Z,101851.91
2023-02-17T05:31:27.563Z,101847.78
2023-02-17T05:33:55.725Z,101847.69
2023-02-17T05:36:25.042Z,101846.31
2023-02-17T05:38:52.938Z,101843.72
2023-02-17T05:41:21.007Z,101834.00
2023-02-17T05:43:49.467Z,101834.53
2023-02-17T05:46:17.571Z,101817.97
2023-02-17T05:48:46.032Z,101825.09
2023-02-17T05:51:17.216Z,101815.81
2023-02-17T05:53:46.569Z,101817.75
2023-02-17T05:56:14.472Z,101829.75
2023-02-17T05:58:42.404Z,101836.19
2023-02-17T06:01:10.785Z,101831.47
2023-02-17T06:03:38.739Z,101837.25
2023-02-17T06:06:07.706Z,101825.38
2023-02-17T06:08:36.014Z,101808.38
2023-02-17T06:11:05.698Z,101809.47
2023-02-17T06:13:33.610Z,101807.22
2023-02-17T06:16:01.725Z,101787.81
2023-02-17T06:18:29.698Z,101797.53
2023-02-17T06:20:57.791Z,101801.16
2023-02-17T06:23:25.835Z,101778.88
2023-02-17T06:25:54.180Z,101769.66
2023-02-17T06:28:23.505Z,101761.09
2023-02-17T06:30:51.459Z,101756.41
2023-02-17T06:33:19.403Z,101755.34
2023-02-17T06:35:50.125Z,101739.34
2023-02-17T06:38:18.272Z,101744.25
2023-02-17T06:40:46.248Z,101739.00
2023-02-17T06:43:14.223Z,101721.72
2023-02-17T06:45:43.572Z,101724.25
2023-02-17T06:48:11.497Z,101720.53
2023-02-17T06:50:39.738Z,101709.91
2023-02-17T06:53:07.683Z,101704.50
2023-02-17T06:55:37.325Z,101713.81
2023-02-17T06:58:05.256Z,101692.59
2023-02-17T07:00:33.183Z,101673.22
2023-02-17T07:03:02.542Z,101675.91
2023-02-17T07:05:30.582Z,101680.38
2023-02-17T07:07:58.917Z,101686.66
2023-02-17T07:10:26.862Z,101680.88
2023-02-17T07:12:54.850Z,101695.38
2023-02-17T07:15:22.849Z,101691.25
2023-02-17T07:17:50.772Z,101696.56
2023-02-17T07:20:20.356Z,101693.44
2023-02-17T07:22:48.262Z,101685.41
2023-02-17T07:25:16.236Z,101678.06
2023-02-17T07:27:44.175Z,101669.88
2023-02-17T07:30:12.872Z,101661.31
2023-02-17T07:32:40.833Z,101675.38
2023-02-17T07:35:09.096Z,101666.63
2023-02-17T07:37:38.367Z,101662.41
2023-02-17T07:40:07.816Z,101662.59
2023-02-17T07:42:35.763Z,101663.69
2023-02-17T07:45:03.692Z,101654.84
2023-02-17T07:47:33.049Z,101656.56
2023-02-17T07:50:01.041Z,101636.88
2023-02-17T07:52:28.964Z,101634.81
2023-02-17T07:54:58.300Z,101614.94
2023-02-17T07:57:26.372Z,101587.53
2023-02-17T07:59:54.276Z,101590.25
2023-02-17T08:02:22.344Z,101574.44
2023-02-17T08:04:50.322Z,101574.44
2023-02-17T08:07:18.405Z,101554.34
2023-02-17T08:10:03.681Z,101560.94
2023-02-17T08:13:02.153Z,101545.78
2023-02-17T08:15:34.076Z,101532.72
2023-02-17T08:18:02.381Z,101518.66
2023-02-17T08:20:30.373Z,101521.16
2023-02-17T08:22:58.286Z,101513.78
2023-02-17T08:25:26.200Z,101502.53
2023-02-17T08:27:55.719Z,101506.63
2023-02-17T08:30:23.638Z,101509.78
2023-02-17T08:32:51.588Z,101501.22
2023-02-17T08:35:22.503Z,101496.50
2023-02-17T08:37:50.538Z,101488.78
2023-02-17T08:40:19.531Z,101479.28
2023-02-17T08:42:48.337Z,101501.53
2023-02-17T08:45:18.287Z,101491.41
2023-02-17T08:47:46.220Z,101494.19
2023-02-17T08:50:16.523Z,101487.81
2023-02-17T08:52:44.484Z,101492.81
2023-02-17T08:55:12.709Z,101484.56
2023-02-17T08:57:40.956Z,101485.22
2023-02-17T09:00:10.499Z,101477.53
2023-02-17T09:02:42.738Z,101490.84
2023-02-17T09:05:12.974Z,101480.69
2023-02-17T09:07:41.299Z,101481.00
2023-02-17T09:10:11.096Z,101468.66
2023-02-17T09:12:39.033Z,101463.06
2023-02-17T09:15:07.847Z,101476.09
2023-02-17T09:17:36.002Z,101465.97
2023-02-17T09:20:16.280Z,101465.50
2023-02-17T09:22:51.529Z,101447.47
2023-02-17T09:25:20.419Z,101455.44
2023-02-17T09:27:48.342Z,101443.53
2023-02-17T09:30:16.461Z,101451.66
2023-02-17T09:32:44.688Z,101443.09
2023-02-17T09:35:14.615Z,101437.59
2023-02-17T09:37:42.546Z,101446.13
2023-02-17T09:40:15.903Z,101434.41
2023-02-17T09:42:43.863Z,101432.38
2023-02-17T09:45:13.910Z,101421.66
2023-02-17T09:47:44.982Z,101415.69
2023-02-17T09:50:17.478Z,101416.91
2023-02-17T09:52:52.606Z,101426.34
2023-02-17T09:55:25.799Z,101442.00
2023-02-17T09:57:58.206Z,101430.88
2023-02-17T10:00:28.289Z,101439.22
2023-02-17T10:03:00.501Z,101438.81
2023-02-17T10:05:36.381Z,101442.84
2023-02-17T10:08:10.058Z,101437.34
2023-02-17T10:10:41.599Z,101453.88
2023-02-17T10:13:11.030Z,101458.41
2023-02-17T10:15:41.932Z,101456.44
2023-02-17T10:18:13.302Z,101484.44
2023-02-17T10:20:43.913Z,101475.25
2023-02-17T10:23:15.469Z,101476.91
2023-02-17T10:25:56.010Z,101459.41
2023-02-17T10:28:29.208Z,101477.53
2023-02-17T10:31:03.108Z,101475.81
2023-02-17T10:33:36.917Z,101469.09
2023-02-17T10:36:13.294Z,101470.50
2023-02-17T10:38:50.681Z,101463.78
2023-02-17T10:41:22.955Z,101454.91
2023-02-17T10:43:51.348Z,101459.00
2023-02-17T10:46:21.977Z,101437.19
2023-02-17T10:48:51.850Z,101446.31
2023-02-17T10:51:24.401Z,101441.44
2023-02-17T10:53:55.544Z,101436.25
2023-02-17T10:56:27.351Z,101421.72
2023-02-17T10:58:58.226Z,101429.72
2023-02-17T11:01:26.583Z,101425.28
2023-02-17T11:04:02.706Z,101417.44
2023-02-17T11:06:39.412Z,101420.13
2023-02-17T11:09:13.961Z,101410.19
2023-02-17T11:11:51.793Z,101412.16
2023-02-17T11:14:22.798Z,101404.78
2023-02-17T11:16:57.102Z,101402.66
2023-02-17T11:19:27.867Z,101404.72
2023-02-17T11:21:59.835Z,101410.91
2023-02-17T11:24:28.137Z,101406.31
2023-02-17T11:27:00.984Z,101416.69
2023-02-17T11:29:29.517Z,101406.47
2023-02-17T11:32:00.957Z,101416.25
2023-02-17T11:34:30.949Z,101406.22
2023-02-17T11:37:02.629Z,101405.00
2023-02-17T11:39:31.032Z,101390.56
2023-02-17T11:41:58.988Z,101408.13
2023-02-17T11:44:28.211Z,101409.72
2023-02-17T11:47:07.095Z,101408.00
2023-02-17T11:49:46.844Z,101387.66
2023-02-17T11:52:24.224Z,101391.19
2023-02-17T11:55:01.456Z,101396.19
2023-02-17T11:57:37.882Z,101392.09
2023-02-17T12:00:17.672Z,101397.16
2023-02-17T12:03:12.426Z,101399.13
2023-02-17T12:05:54.707Z,101392.69
2023-02-17T12:08:29.282Z,101391.38
2023-02-17T12:11:05.936Z,101399.28
2023-02-17T12:13:43.896Z,101389.97
2023-02-17T12:16:21.143Z,101405.78
2023-02-17T12:19:00.731Z,101385.06
2023-02-17T12:21:48.261Z,101383.16
2023-02-17T12:24:39.310Z,101391.56
2023-02-17T12:27:13.029Z,101382.81
2023-02-17T12:29:56.729Z,101378.38
2023-02-17T12:32:35.160Z,101387.38
2023-02-17T12:35:11.665Z,101375.56
2023-02-17T12:37:48.409Z,101374.94
2023-02-17T12:40:32.664Z,101373.81
2023-02-17T12:43:04.068Z,101386.78
2023-02-17T12:45:38.779Z,101392.53
2023-02-17T12:48:11.045Z,101390.53
2023-02-17T12:50:43.041Z,101382.66
2023-02-17T12:53:14.532Z,101391.75
2023-02-17T12:55:48.495Z,101394.69
2023-02-17T12:58:18.787Z,101410.34
2023-02-17T13:00:48.561Z,101411.75
2023-02-17T13:03:16.557Z,101406.31
2023-02-17T13:05:49.316Z,101402.22
2023-02-17T13:08:20.737Z,101406.31
2023-02-17T13:11:04.202Z,101407.91
2023-02-17T13:13:33.945Z,101410.63
2023-02-17T13:16:04.746Z,101393.25
2023-02-17T13:18:34.693Z,101402.13
2023-02-17T13:21:05.577Z,101422.88
2023-02-17T13:23:36.977Z,101420.28
2023-02-17T13:26:36.758Z,101422.75
2023-02-17T13:29:11.284Z,101406.97
2023-02-17T13:31:52.250Z,101397.06
2023-02-17T13:34:29.958Z,101389.00
2023-02-17T13:36:58.648Z,101391.97
2023-02-17T13:39:35.476Z,101392.47
2023-02-17T13:42:06.084Z,101399.22
2023-02-17T13:44:35.478Z,101393.06
2023-02-17T13:47:05.115Z,101388.38
2023-02-17T13:49:35.251Z,101400.09
2023-02-17T13:52:18.597Z,101405.16
2023-02-17T13:54:53.679Z,101409.13
2023-02-17T13:57:27.798Z,101399.00
2023-02-17T14:00:10.427Z,101403.84
2023-02-17T14:02:39.208Z,101394.13
2023-02-17T14:05:18.714Z,101387.94
2023-02-17T14:07:48.362Z,101388.69
2023-02-17T14:10:25.205Z,101393.34
2023-02-17T14:12:55.492Z,101386.84
2023-02-17T14:15:25.286Z,101385.72
2023-02-17T14:17:53.498Z,101373.31
2023-02-17T14:20:34.986Z,101363.22
2023-02-17T14:23:05.706Z,101352.34
2023-02-17T14:25:36.045Z,101349.38
2023-02-17T14:28:06.165Z,101325.75
2023-02-17T14:30:36.823Z,101330.66
2023-02-17T14:33:09.829Z,101308.94
2023-02-17T14:35:39.436Z,101334.47
2023-02-17T14:38:20.981Z,101351.50
2023-02-17T14:40:49.085Z,101347.78
2023-02-17T14:43:18.418Z,101348.88
2023-02-17T14:45:46.473Z,101335.22
2023-02-17T14:48:14.827Z,101367.25
2023-02-17T14:50:44.256Z,101376.09
2023-02-17T14:53:14.831Z,101357.75
2023-02-17T14:55:46.282Z,101351.59
2023-02-17T14:58:17.636Z,101355.13
2023-02-17T15:00:47.069Z,101324.38
2023-02-17T15:03:15.573Z,101326.69
2023-02-17T15:05:44.072Z,101308.09
2023-02-17T15:08:14.432Z,101289.22
2023-02-17T15:10:42.375Z,101262.75
2023-02-17T15:13:15.128Z,101268.31
2023-02-17T15:15:45.047Z,101240.59
2023-02-17T15:18:15.219Z,101262.13
2023-02-17T15:20:45.501Z,101217.84
2023-02-17T15:23:14.567Z,101200.47
2023-02-17T15:25:42.569Z,101207.22
2023-02-17T15:28:13.787Z,101185.81
2023-02-17T15:30:41.806Z,101169.69
2023-02-17T15:33:14.257Z,101175.94
2023-02-17T15:35:43.175Z,101140.34
2023-02-17T15:38:12.802Z,101134.22
2023-02-17T15:40:41.189Z,101128.06
2023-02-17T15:43:12.383Z,101135.06
2023-02-17T15:45:40.299Z,101122.38
2023-02-17T15:48:12.035Z,101121.91
2023-02-17T15:50:41.338Z,101108.84
2023-02-17T15:53:09.309Z,101122.22
2023-02-17T15:55:37.285Z,101116.81
2023-02-17T15:58:06.062Z,101114.72
2023-02-17T16:00:36.758Z,101117.25
2023-02-17T16:03:04.926Z,101111.50
2023-02-17T16:05:33.661Z,101122.78
2023-02-17T16:08:02.948Z,101116.47
2023-02-17T16:10:31.110Z,101120.56
2023-02-17T16:12:59.640Z,101113.28
2023-02-17T16:15:29.384Z,101126.28
2023-02-17T16:17:57.772Z,101132.09
2023-02-17T16:20:27.547Z,101136.41
2023-02-17T16:22:55.485Z,101130.88
2023-02-17T16:25:24.886Z,101148.91
2023-02-17T16:27:53.764Z,101135.50
2023-02-17T16:30:24.173Z,101144.69
2023-02-17T16:32:52.784Z,101154.75
2023-02-17T16:35:23.016Z,101157.16
2023-02-17T16:37:54.332Z,101160.44
2023-02-17T16:40:25.674Z,101168.31
2023-02-17T16:42:53.733Z,101164.44
2023-02-17T16:45:24.029Z,101157.09
2023-02-17T16:47:56.600Z,101156.03
2023-02-17T16:50:26.892Z,101162.22
2023-02-17T16:52:56.576Z,101157.69
2023-02-17T16:55:28.714Z,101162.56
2023-02-17T16:57:57.349Z,101149.94
2023-02-17T17:00:29.792Z,101155.19
2023-02-17T17:02:58.151Z,101166.00
2023-02-17T17:05:27.938Z,101175.31
2023-02-17T17:07:56.240Z,101202.09
2023-02-17T17:10:27.073Z,101185.03
2023-02-17T17:12:55.349Z,101199.72
2023-02-17T17:15:23.441Z,101192.16
2023-02-17T17:17:53.903Z,101209.97
2023-02-17T17:20:26.922Z,101229.19
2023-02-17T17:22:55.050Z,101233.41
2023-02-17T17:25:22.987Z,101231.88
2023-02-17T17:27:52.304Z,101233.84
2023-02-17T17:30:22.042Z,101233.78
2023-02-17T17:32:50.201Z,101238.47
2023-02-17T17:35:18.749Z,101258.94
2023-02-17T17:37:49.750Z,101240.25
2023-02-17T17:40:19.791Z,101243.84
2023-02-17T17:42:47.701Z,101254.75
2023-02-17T17:45:17.375Z,101256.78
2023-02-17T17:47:45.790Z,101228.59
2023-02-17T17:50:17.291Z,101251.38
2023-02-17T17:52:45.480Z,101260.78
2023-02-17T17:55:13.842Z,101262.72
2023-02-17T17:57:42.509Z,101255.38
2023-02-17T18:00:14.229Z,101263.03
2023-02-17T18:02:43.785Z,101261.19
2023-02-17T18:05:12.337Z,101273.91
2023-02-17T18:07:41.632Z,101283.00
2023-02-17T18:10:11.519Z,101281.81
2023-02-17T18:12:39.913Z,101278.97
2023-02-17T18:15:08.776Z,101290.09
2023-02-17T18:17:38.714Z,101286.19
2023-02-17T18:20:10.778Z,101285.88
2023-02-17T18:22:38.911Z,101296.22
2023-02-17T18:25:07.168Z,101281.84
2023-02-17T18:27:39.943Z,101298.50
2023-02-17T18:30:09.411Z,101297.94
2023-02-17T18:32:37.332Z,101307.75
2023-02-17T18:35:05.746Z,101313.06
2023-02-17T18:37:35.421Z,101314.13
2023-02-17T18:40:03.966Z,101314.41
2023-02-17T18:42:32.240Z,101327.41
2023-02-17T18:45:00.129Z,101311.81
2023-02-17T18:47:28.115Z,101328.00
2023-02-17T18:49:56.187Z,101324.75
2023-02-17T18:52:24.296Z,101320.31
2023-02-17T18:54:53.918Z,101309.28
2023-02-17T18:57:22.083Z,101328.16
2023-02-17T18:59:50.534Z,101335.06
2023-02-17T19:02:19.413Z,101316.31
2023-02-17T19:04:47.312Z,101348.34
2023-02-17T19:07:15.292Z,101338.28
2023-02-17T19:09:43.525Z,101347.78
2023-02-17T19:12:13.666Z,101344.78
2023-02-17T19:14:42.135Z,101349.59
2023-02-17T19:17:10.570Z,101354.44
2023-02-17T19:19:38.604Z,101354.25
2023-02-17T19:22:08.715Z,101351.47
2023-02-17T19:24:36.790Z,101361.69
2023-02-17T19:27:05.020Z,101358.88
2023-02-17T19:29:34.634Z,101375.44
2023-02-17T19:32:04.502Z,101378.25
2023-02-17T19:34:32.577Z,101356.38
2023-02-17T19:37:00.729Z,101375.44
2023-02-17T19:39:28.837Z,101390.97
2023-02-17T19:41:56.731Z,101400.38
2023-02-17T19:44:24.722Z,101401.19
2023-02-17T19:46:54.300Z,101410.09
2023-02-17T19:49:22.560Z,101409.16
2023-02-17T19:51:50.939Z,101403.66
2023-02-17T19:54:18.967Z,101424.38
2023-02-17T19:56:48.927Z,101430.22
2023-02-17T19:59:16.976Z,101433.41
2023-02-17T20:01:45.161Z,101446.13
2023-02-17T20:04:14.737Z,101441.78
2023-02-17T20:06:45.634Z,101445.53
2023-02-17T20:09:16.877Z,101447.47
2023-02-17T20:11:45.861Z,101435.94
2023-02-17T20:14:16.959Z,101445.34
2023-02-17T20:16:44.906Z,101433.03
2023-02-17T20:19:14.454Z,101459.59
2023-02-17T20:21:44.849Z,101449.31
2023-02-17T20:24:14.223Z,101460.66
2023-02-17T20:26:44.846Z,101450.81
2023-02-17T20:29:13.778Z,101448.25
2023-02-17T20:31:42.884Z,101448.25
2023-02-17T20:34:28.256Z,101446.97
2023-02-17T20:36:56.388Z,101446.50
2023-02-17T20:39:25.922Z,101448.53
2023-02-17T20:41:54.519Z,101462.19
2023-02-17T20:44:23.719Z,101462.38
2023-02-17T20:46:53.343Z,101459.69
2023-02-17T20:49:22.275Z,101475.94
2023-02-17T20:51:53.941Z,101476.03
2023-02-17T20:54:24.685Z,101483.94
2023-02-17T20:56:53.030Z,101468.72
2023-02-17T20:59:21.463Z,101482.00
2023-02-17T21:01:49.955Z,101489.50
2023-02-17T21:04:18.720Z,101488.03
2023-02-17T21:06:47.538Z,101501.31
2023-02-17T21:09:18.681Z,101504.88
2023-02-17T21:11:47.910Z,101509.09
2023-02-17T21:14:16.279Z,101500.56
2023-02-17T21:16:47.532Z,101492.59
2023-02-17T21:19:15.699Z,101514.97
2023-02-17T21:21:43.801Z,101498.53
2023-02-17T21:24:12.035Z,101504.59
2023-02-17T21:26:42.582Z,101512.94
2023-02-17T21:29:10.525Z,101512.34
2023-02-17T21:31:38.499Z,101513.41
2023-02-17T21:34:07.251Z,101523.22
2023-02-17T21:36:35.192Z,101521.13
2023-02-17T21:39:04.265Z,101526.19
2023-02-17T21:41:33.314Z,101520.53
2023-02-17T21:44:20.627Z,101528.59
2023-02-17T21:46:48.561Z,101527.56
2023-02-17T21:49:16.738Z,101523.28
2023-02-17T21:51:45.062Z,101519.28
2023-02-17T21:54:13.114Z,101515.84
2023-02-17T21:56:41.278Z,101510.63
2023-02-17T21:59:10.650Z,101518.78
2023-02-17T22:01:38.752Z,101502.81
2023-02-17T22:04:06.811Z,101529.09
2023-02-17T22:06:36.966Z,101537.84
2023-02-17T22:09:06.812Z,101521.75
2023-02-17T22:11:36.752Z,101528.09
2023-02-17T22:14:07.686Z,101528.97
2023-02-17T22:16:37.760Z,101536.38
2023-02-17T22:19:07.220Z,101536.16
2023-02-17T22:21:36.460Z,101530.88
2023-02-17T22:24:04.447Z,101535.22
2023-02-17T22:26:33.122Z,101530.28
2023-02-17T22:29:01.041Z,101528.78
2023-02-17T22:31:31.083Z,101521.66
2023-02-17T22:34:02.514Z,101527.25
2023-02-17T22:36:33.100Z,101533.41
2023-02-17T22:39:01.186Z,101536.38
2023-02-17T22:41:29.447Z,101538.97
2023-02-17T22:43:57.634Z,101539.28
2023-02-17T22:46:27.314Z,101545.41
2023-02-17T22:48:57.890Z,101543.94
2023-02-17T22:51:29.158Z,101537.84
2023-02-17T22:53:57.094Z,101546.44
2023-02-17T22:56:25.246Z,101551.53
2023-02-17T22:58:56.515Z,101553.53
2023-02-17T23:01:25.418Z,101551.13
2023-02-17T23:03:54.696Z,101552.06
2023-02-17T23:06:26.401Z,101554.59
2023-02-17T23:08:56.148Z,101538.59
2023-02-17T23:11:45.902Z,101550.09
2023-02-17T23:14:14.671Z,101543.41
2023-02-17T23:16:43.120Z,101544.16
2023-02-17T23:19:16.477Z,101556.94
2023-02-17T23:21:45.318Z,101547.53
2023-02-17T23:24:16.480Z,101534.34
2023-02-17T23:26:44.921Z,101538.19
2023-02-17T23:29:12.861Z,101540.09
2023-02-17T23:31:40.938Z,101553.06
2023-02-17T23:34:12.022Z,101552.78
2023-02-17T23:36:40.505Z,101549.22
2023-02-17T23:39:08.840Z,101557.50
2023-02-17T23:41:38.512Z,101561.81
2023-02-17T23:44:09.576Z,101544.53
2023-02-17T23:46:37.781Z,101557.28
2023-02-17T23:49:06.092Z,101557.75
2023-02-17T23:51:34.309Z,101560.50
2023-02-17T23:54:04.582Z,101565.13
2023-02-17T23:56:34.620Z,101562.50
2023-02-17T23:59:04.171Z,101575.47
